Hayase Maru — JD2583 — position and weather

sailwx.info

Track history (hours):
 
Tides and Currents Weather Stations Pressure Air Temp Water Temp Dewpoint Dewpoint Depression Visibility Wind Speed Wind Dir Waves Ship Positions

Hayase Maru

Last reported at 2014-Jul-23 10:18 UTC. Time now 2014-Jul-24 02:04 UTC.
Position N 34°52' E 139°19'.

Length 73 m; draft 4.1 m.

Type: Ship. MMSI: 431000395.

Date/timePositionNaut miles runAvg speedWind from/ knotsBaromVisibWave heightAir tempDewpointWater temp
2014-Jul-23 10:18N 34°52' E 139°19'8 9.7
2014-Jul-23 09:31N 34°57' E 139°26'1010.0
2014-Jul-23 08:34N 35°03' E 139°36'1110.7
2014-Jul-23 07:34N 35°11' E 139°45'1010.0
2014-Jul-23 06:34N 35°20' E 139°42'1010.3
2014-Jul-23 05:34N 35°30' E 139°48'3 2.6
2014-Jul-23 04:33N 35°31' E 139°45'0 0.0
2014-Jul-23 03:33N 35°31' E 139°45'0 0.0
2014-Jul-23 02:33N 35°31' E 139°45'0 0.0
2014-Jul-23 01:33N 35°31' E 139°45'0 0.0
2014-Jul-23 00:33N 35°31' E 139°45'0 0.0
2014-Jul-22 23:33N 35°31' E 139°45'0 0.0
2014-Jul-22 22:33N 35°31' E 139°45'0 0.0
2014-Jul-22 21:33N 35°31' E 139°45'0 0.0
2014-Jul-22 20:33N 35°31' E 139°45'0 0.0
2014-Jul-22 19:33N 35°31' E 139°45'0 0.0
2014-Jul-22 18:33N 35°31' E 139°45'0 0.0
2014-Jul-22 17:33N 35°31' E 139°45'0 0.0
2014-Jul-22 16:33N 35°31' E 139°45'0 0.0
2014-Jul-22 15:27N 35°31' E 139°45'0 0.0
2014-Jul-22 14:33N 35°31' E 139°45'0 0.0
2014-Jul-22 13:33N 35°31' E 139°45'0 0.0
2014-Jul-22 12:33N 35°31' E 139°45'0 0.0
2014-Jul-22 11:33N 35°31' E 139°45'0 0.0
2014-Jul-22 10:33N 35°31' E 139°45'0 0.1
2014-Jul-22 09:33N 35°31' E 139°45'9 8.7
2014-Jul-22 08:33N 35°34' E 139°55'6 6.4
2014-Jul-22 07:33N 35°40' E 139°57'0 0.0
2014-Jul-22 06:33N 35°40' E 139°57'0 0.0
2014-Jul-22 05:33N 35°40' E 139°57'0 0.0
2014-Jul-22 04:33N 35°40' E 139°57'2 2.5
2014-Jul-22 03:33N 35°38' E 139°59'1 0.6
2014-Jul-22 02:33N 35°38' E 139°58'0 0.0
2014-Jul-22 01:33N 35°38' E 139°58'0 0.0
2014-Jul-22 00:33N 35°38' E 139°58'0 0.0
2014-Jul-21 23:33N 35°38' E 139°58'0 0.1
2014-Jul-21 22:33N 35°37' E 139°58'0 0.0
2014-Jul-21 21:30N 35°37' E 139°58'0 0.0
2014-Jul-21 20:33N 35°37' E 139°58'0 0.0
2014-Jul-21 20:15N 35°37' E 139°58'0 0.0
2014-Jul-21 19:27N 35°37' E 139°58'0 0.0
2014-Jul-21 18:33N 35°37' E 139°58'0 0.0
2014-Jul-21 17:30N 35°37' E 139°58'0 0.0
2014-Jul-21 16:33N 35°37' E 139°58'0 0.0
2014-Jul-21 15:24N 35°37' E 139°58'0 0.0
2014-Jul-21 14:33N 35°37' E 139°58'4 3.8
2014-Jul-21 13:33N 35°34' E 139°56'1211.5
2014-Jul-21 12:33N 35°25' E 139°47'10 9.9
2014-Jul-21 11:33N 35°15' E 139°47'1111.0
2014-Jul-21 10:33N 35°05' E 139°43'  
2014-Jul-16 12:04N 34°08' E 134°45'235 9.4
2014-Jul-15 11:10N 34°56' E 139°25'610.6
2014-Jul-15 10:33N 34°60' E 139°31'1111.3
2014-Jul-15 09:33N 35°07' E 139°42'10 9.8
2014-Jul-15 08:33N 35°16' E 139°45'1010.0
2014-Jul-15 07:34N 35°26' E 139°44'5 4.3
2014-Jul-15 06:28N 35°31' E 139°45'0 0.0
2014-Jul-15 05:28N 35°31' E 139°45'0 0.0
2014-Jul-15 04:28N 35°31' E 139°45'0 0.0
2014-Jul-15 03:28N 35°31' E 139°45'0 0.0
2014-Jul-15 02:31N 35°31' E 139°45'0 0.0
2014-Jul-15 01:31N 35°31' E 139°45'0 0.0
2014-Jul-15 00:31N 35°31' E 139°45'0 0.0
2014-Jul-14 23:31N 35°31' E 139°45'0 0.0
2014-Jul-14 22:31N 35°31' E 139°45'0 0.0
2014-Jul-14 21:31N 35°31' E 139°45'0 0.0
2014-Jul-14 20:31N 35°31' E 139°45'0 0.0
2014-Jul-14 19:31N 35°31' E 139°45'0 0.0
2014-Jul-14 18:31N 35°31' E 139°45'0 0.0
2014-Jul-14 17:28N 35°31' E 139°45'0 0.0
2014-Jul-14 16:31N 35°31' E 139°45'0 0.0
2014-Jul-14 15:31N 35°31' E 139°45'0 0.0
2014-Jul-14 14:31N 35°31' E 139°45'0 0.0
2014-Jul-14 13:31N 35°31' E 139°45'0 0.0
2014-Jul-14 12:31N 35°31' E 139°45'0 0.0
2014-Jul-14 11:31N 35°31' E 139°45'0 0.0
2014-Jul-14 10:31N 35°31' E 139°45'0 0.0
2014-Jul-14 09:31N 35°31' E 139°45'0 0.0
2014-Jul-14 08:31N 35°31' E 139°45'0 0.0
2014-Jul-14 07:31N 35°31' E 139°45'0 0.0
2014-Jul-14 06:28N 35°31' E 139°45'0 0.0
2014-Jul-14 05:25N 35°31' E 139°45'0 0.0
2014-Jul-14 04:31N 35°31' E 139°45'0 0.0
2014-Jul-14 03:28N 35°31' E 139°45'0 0.0
2014-Jul-14 02:31N 35°31' E 139°45'0 0.0
2014-Jul-14 01:28N 35°31' E 139°45'1 0.9
2014-Jul-14 00:33N 35°31' E 139°46'0 0.0
2014-Jul-13 23:30N 35°31' E 139°46'2 2.4
2014-Jul-13 22:33N 35°30' E 139°48'0 0.3
2014-Jul-13 21:30N 35°29' E 139°48'0 0.0
2014-Jul-13 20:30N 35°29' E 139°48'0 0.0
2014-Jul-13 19:33N 35°29' E 139°48'0 0.0
2014-Jul-13 18:27N 35°29' E 139°48'0 0.0
2014-Jul-13 17:33N 35°29' E 139°48'0 0.0
2014-Jul-13 16:31N 35°29' E 139°48'0 0.0
2014-Jul-13 15:28N 35°29' E 139°48'0 0.0
2014-Jul-13 14:25N 35°29' E 139°48'0 0.0
2014-Jul-13 13:31N 35°29' E 139°48'0 0.0
2014-Jul-13 12:31N 35°29' E 139°48'0 0.0
2014-Jul-13 11:25N 35°29' E 139°48'0 0.0
2014-Jul-13 10:31N 35°29' E 139°48'  
Track history (hours):
 
Tides and Currents Weather Stations Pressure Air Temp Water Temp Dewpoint Dewpoint Depression Visibility Wind Speed Wind Dir Waves Ship Positions

Hayase Maru

Last reported at 2014-Jul-23 10:18 UTC. Time now 2014-Jul-24 02:04 UTC.
Position N 34°52' E 139°19'.

Length 73 m; draft 4.1 m.

Type: Ship. MMSI: 431000395.

Date/timePositionNaut miles runAvg speedWind from/ knotsBaromVisibWave heightAir tempDewpointWater temp
2014-Jul-23 10:18N 34°52' E 139°19'8 9.7
2014-Jul-23 09:31N 34°57' E 139°26'1010.0
2014-Jul-23 08:34N 35°03' E 139°36'1110.7
2014-Jul-23 07:34N 35°11' E 139°45'1010.0
2014-Jul-23 06:34N 35°20' E 139°42'1010.3
2014-Jul-23 05:34N 35°30' E 139°48'3 2.6
2014-Jul-23 04:33N 35°31' E 139°45'0 0.0
2014-Jul-23 03:33N 35°31' E 139°45'0 0.0
2014-Jul-23 02:33N 35°31' E 139°45'0 0.0
2014-Jul-23 01:33N 35°31' E 139°45'0 0.0
2014-Jul-23 00:33N 35°31' E 139°45'0 0.0
2014-Jul-22 23:33N 35°31' E 139°45'0 0.0
2014-Jul-22 22:33N 35°31' E 139°45'0 0.0
2014-Jul-22 21:33N 35°31' E 139°45'0 0.0
2014-Jul-22 20:33N 35°31' E 139°45'0 0.0
2014-Jul-22 19:33N 35°31' E 139°45'0 0.0
2014-Jul-22 18:33N 35°31' E 139°45'0 0.0
2014-Jul-22 17:33N 35°31' E 139°45'0 0.0
2014-Jul-22 16:33N 35°31' E 139°45'0 0.0
2014-Jul-22 15:27N 35°31' E 139°45'0 0.0
2014-Jul-22 14:33N 35°31' E 139°45'0 0.0
2014-Jul-22 13:33N 35°31' E 139°45'0 0.0
2014-Jul-22 12:33N 35°31' E 139°45'0 0.0
2014-Jul-22 11:33N 35°31' E 139°45'0 0.0
2014-Jul-22 10:33N 35°31' E 139°45'0 0.1
2014-Jul-22 09:33N 35°31' E 139°45'9 8.7
2014-Jul-22 08:33N 35°34' E 139°55'6 6.4
2014-Jul-22 07:33N 35°40' E 139°57'0 0.0
2014-Jul-22 06:33N 35°40' E 139°57'0 0.0
2014-Jul-22 05:33N 35°40' E 139°57'0 0.0
2014-Jul-22 04:33N 35°40' E 139°57'2 2.5
2014-Jul-22 03:33N 35°38' E 139°59'1 0.6
2014-Jul-22 02:33N 35°38' E 139°58'0 0.0
2014-Jul-22 01:33N 35°38' E 139°58'0 0.0
2014-Jul-22 00:33N 35°38' E 139°58'0 0.0
2014-Jul-21 23:33N 35°38' E 139°58'0 0.1
2014-Jul-21 22:33N 35°37' E 139°58'0 0.0
2014-Jul-21 21:30N 35°37' E 139°58'0 0.0
2014-Jul-21 20:33N 35°37' E 139°58'0 0.0
2014-Jul-21 20:15N 35°37' E 139°58'0 0.0
2014-Jul-21 19:27N 35°37' E 139°58'0 0.0
2014-Jul-21 18:33N 35°37' E 139°58'0 0.0
2014-Jul-21 17:30N 35°37' E 139°58'0 0.0
2014-Jul-21 16:33N 35°37' E 139°58'0 0.0
2014-Jul-21 15:24N 35°37' E 139°58'0 0.0
2014-Jul-21 14:33N 35°37' E 139°58'4 3.8
2014-Jul-21 13:33N 35°34' E 139°56'1211.5
2014-Jul-21 12:33N 35°25' E 139°47'10 9.9
2014-Jul-21 11:33N 35°15' E 139°47'1111.0
2014-Jul-21 10:33N 35°05' E 139°43'  
2014-Jul-16 12:04N 34°08' E 134°45'235 9.4
2014-Jul-15 11:10N 34°56' E 139°25'610.6
2014-Jul-15 10:33N 34°60' E 139°31'1111.3
2014-Jul-15 09:33N 35°07' E 139°42'10 9.8
2014-Jul-15 08:33N 35°16' E 139°45'1010.0
2014-Jul-15 07:34N 35°26' E 139°44'5 4.3
2014-Jul-15 06:28N 35°31' E 139°45'0 0.0
2014-Jul-15 05:28N 35°31' E 139°45'0 0.0
2014-Jul-15 04:28N 35°31' E 139°45'0 0.0
2014-Jul-15 03:28N 35°31' E 139°45'0 0.0
2014-Jul-15 02:31N 35°31' E 139°45'0 0.0
2014-Jul-15 01:31N 35°31' E 139°45'0 0.0
2014-Jul-15 00:31N 35°31' E 139°45'0 0.0
2014-Jul-14 23:31N 35°31' E 139°45'0 0.0
2014-Jul-14 22:31N 35°31' E 139°45'0 0.0
2014-Jul-14 21:31N 35°31' E 139°45'0 0.0
2014-Jul-14 20:31N 35°31' E 139°45'0 0.0
2014-Jul-14 19:31N 35°31' E 139°45'0 0.0
2014-Jul-14 18:31N 35°31' E 139°45'0 0.0
2014-Jul-14 17:28N 35°31' E 139°45'0 0.0
2014-Jul-14 16:31N 35°31' E 139°45'0 0.0
2014-Jul-14 15:31N 35°31' E 139°45'0 0.0
2014-Jul-14 14:31N 35°31' E 139°45'0 0.0
2014-Jul-14 13:31N 35°31' E 139°45'0 0.0
2014-Jul-14 12:31N 35°31' E 139°45'0 0.0
2014-Jul-14 11:31N 35°31' E 139°45'0 0.0
2014-Jul-14 10:31N 35°31' E 139°45'0 0.0
2014-Jul-14 09:31N 35°31' E 139°45'0 0.0
2014-Jul-14 08:31N 35°31' E 139°45'0 0.0
2014-Jul-14 07:31N 35°31' E 139°45'0 0.0
2014-Jul-14 06:28N 35°31' E 139°45'0 0.0
2014-Jul-14 05:25N 35°31' E 139°45'0 0.0
2014-Jul-14 04:31N 35°31' E 139°45'0 0.0
2014-Jul-14 03:28N 35°31' E 139°45'0 0.0
2014-Jul-14 02:31N 35°31' E 139°45'0 0.0
2014-Jul-14 01:28N 35°31' E 139°45'1 0.9
2014-Jul-14 00:33N 35°31' E 139°46'0 0.0
2014-Jul-13 23:30N 35°31' E 139°46'2 2.4
2014-Jul-13 22:33N 35°30' E 139°48'0 0.3
2014-Jul-13 21:30N 35°29' E 139°48'0 0.0
2014-Jul-13 20:30N 35°29' E 139°48'0 0.0
2014-Jul-13 19:33N 35°29' E 139°48'0 0.0
2014-Jul-13 18:27N 35°29' E 139°48'0 0.0
2014-Jul-13 17:33N 35°29' E 139°48'0 0.0
2014-Jul-13 16:31N 35°29' E 139°48'0 0.0
2014-Jul-13 15:28N 35°29' E 139°48'0 0.0
2014-Jul-13 14:25N 35°29' E 139°48'0 0.0
2014-Jul-13 13:31N 35°29' E 139°48'0 0.0
2014-Jul-13 12:31N 35°29' E 139°48'0 0.0
2014-Jul-13 11:25N 35°29' E 139°48'0 0.0
2014-Jul-13 10:31N 35°29' E 139°48'  

Dump ship's entire track history